createdAt,value
2017-11-27T00:01:55.829Z,3.23
2017-11-27T00:04:23.293Z,3.20
2017-11-27T00:06:50.750Z,2.57
2017-11-27T00:09:18.210Z,3.40
2017-11-27T00:11:45.698Z,2.43
2017-11-27T00:14:13.144Z,2.90
2017-11-27T00:16:40.610Z,2.20
2017-11-27T00:19:08.061Z,3.10
2017-11-27T00:21:35.553Z,2.60
2017-11-27T00:24:03.005Z,3.10
2017-11-27T00:26:30.483Z,2.50
2017-11-27T00:28:57.935Z,3.37
2017-11-27T00:31:25.417Z,2.40
2017-11-27T00:33:52.994Z,2.10
2017-11-27T00:36:20.472Z,2.37
2017-11-27T00:38:47.920Z,1.90
2017-11-27T00:41:15.396Z,1.70
2017-11-27T00:43:42.902Z,2.33
2017-11-27T00:46:10.346Z,2.20
2017-11-27T00:48:37.817Z,2.57
2017-11-27T00:51:05.278Z,2.33
2017-11-27T00:53:32.745Z,2.70
2017-11-27T00:56:00.188Z,2.47
2017-11-27T00:58:27.656Z,2.60
2017-11-27T01:00:55.111Z,3.13
2017-11-27T01:03:22.588Z,3.07
2017-11-27T01:05:50.181Z,2.50
2017-11-27T01:08:17.649Z,3.03
2017-11-27T01:10:45.097Z,2.67
2017-11-27T01:13:12.585Z,2.70
2017-11-27T01:15:40.041Z,2.30
2017-11-27T01:18:07.644Z,1.97
2017-11-27T01:20:35.136Z,3.30
2017-11-27T01:23:02.717Z,1.87
2017-11-27T01:25:30.211Z,3.10
2017-11-27T01:27:57.727Z,2.40
2017-11-27T01:30:25.189Z,2.53
2017-11-27T01:32:52.633Z,2.83
2017-11-27T01:35:20.111Z,2.43
2017-11-27T01:37:47.571Z,2.30
2017-11-27T01:40:15.037Z,2.27
2017-11-27T01:42:42.587Z,2.87
2017-11-27T01:45:10.056Z,2.73
2017-11-27T01:47:37.508Z,2.33
2017-11-27T01:50:04.977Z,1.93
2017-11-27T01:52:32.490Z,2.50
2017-11-27T01:54:59.979Z,2.27
2017-11-27T01:57:27.429Z,2.90
2017-11-27T01:59:54.905Z,2.87
2017-11-27T02:02:22.442Z,1.87
2017-11-27T02:04:49.886Z,2.60
2017-11-27T02:07:17.458Z,2.73
2017-11-27T02:09:44.903Z,3.07
2017-11-27T02:12:12.370Z,3.10
2017-11-27T02:14:39.812Z,2.60
2017-11-27T02:17:07.325Z,2.70
2017-11-27T02:19:34.835Z,2.30
2017-11-27T02:22:02.287Z,2.73
2017-11-27T02:24:29.848Z,2.87
2017-11-27T02:26:57.306Z,2.47
2017-11-27T02:29:24.769Z,3.07
2017-11-27T02:31:52.211Z,3.27
2017-11-27T02:34:19.788Z,3.13
2017-11-27T02:36:47.232Z,2.20
2017-11-27T02:39:14.699Z,2.90
2017-11-27T02:41:42.158Z,2.47
2017-11-27T02:44:09.644Z,1.70
2017-11-27T02:46:37.088Z,1.60
2017-11-27T02:49:04.612Z,2.00
2017-11-27T02:51:32.080Z,1.77
2017-11-27T02:53:59.576Z,1.53
2017-11-27T02:56:27.024Z,2.13
2017-11-27T02:58:54.469Z,2.40
2017-11-27T03:01:21.997Z,2.10
2017-11-27T03:03:49.510Z,2.30
2017-11-27T03:06:17.043Z,1.70
2017-11-27T03:08:44.494Z,2.63
2017-11-27T03:11:11.957Z,2.50
2017-11-27T03:13:39.411Z,2.10
2017-11-27T03:16:06.888Z,2.47
2017-11-27T03:18:34.352Z,2.40
2017-11-27T03:21:01.886Z,2.23
2017-11-27T03:23:29.341Z,1.97
2017-11-27T03:25:56.804Z,2.90
2017-11-27T03:28:24.248Z,2.20
2017-11-27T03:30:51.717Z,2.70
2017-11-27T03:33:19.175Z,2.43
2017-11-27T03:35:46.650Z,2.20
2017-11-27T03:38:14.114Z,2.77
2017-11-27T03:40:41.635Z,2.90
2017-11-27T03:43:09.101Z,2.80
2017-11-27T03:45:36.553Z,2.97
2017-11-27T03:48:04.012Z,3.20
2017-11-27T03:50:31.544Z,3.50
2017-11-27T03:52:59.108Z,3.13
2017-11-27T03:55:26.548Z,2.37
2017-11-27T03:57:54.013Z,2.73
2017-11-27T04:00:21.456Z,1.90
2017-11-27T04:02:48.927Z,1.60
2017-11-27T04:05:16.412Z,2.77
2017-11-27T04:07:43.945Z,2.73
2017-11-27T04:10:11.503Z,2.30
2017-11-27T04:12:38.972Z,3.37
2017-11-27T04:15:06.479Z,2.97
2017-11-27T04:17:33.978Z,2.90
2017-11-27T04:20:01.449Z,3.53
2017-11-27T04:22:28.987Z,3.93
2017-11-27T04:24:56.518Z,3.63
2017-11-27T04:27:24.292Z,4.00
2017-11-27T04:29:51.876Z,4.23
2017-11-27T04:32:19.332Z,3.90
2017-11-27T04:34:46.804Z,4.27
2017-11-27T04:37:14.250Z,4.53
2017-11-27T04:39:41.808Z,4.83
2017-11-27T04:42:09.279Z,4.20
2017-11-27T04:44:36.729Z,3.83
2017-11-27T04:47:04.198Z,2.97
2017-11-27T04:49:31.688Z,4.80
2017-11-27T04:51:59.162Z,2.80
2017-11-27T04:54:26.667Z,3.27
2017-11-27T04:56:54.208Z,3.30
2017-11-27T04:59:21.678Z,2.50
2017-11-27T05:01:49.161Z,3.50
2017-11-27T05:04:16.622Z,3.00
2017-11-27T05:06:44.069Z,3.77
2017-11-27T05:09:11.540Z,2.83
2017-11-27T05:11:38.998Z,2.30
2017-11-27T05:14:06.479Z,3.07
2017-11-27T05:16:33.933Z,2.73
2017-11-27T05:19:01.401Z,2.03
2017-11-27T05:21:28.858Z,3.00
2017-11-27T05:23:56.320Z,2.90
2017-11-27T05:26:23.778Z,2.83
2017-11-27T05:28:51.261Z,2.50
2017-11-27T05:31:18.742Z,2.40
2017-11-27T05:33:46.197Z,2.40
2017-11-27T05:36:13.675Z,2.73
2017-11-27T05:38:41.157Z,1.93
2017-11-27T05:41:08.747Z,2.10
2017-11-27T05:43:36.191Z,2.70
2017-11-27T05:46:03.694Z,2.13
2017-11-27T05:48:31.136Z,2.80
2017-11-27T05:50:58.601Z,3.70
2017-11-27T05:53:26.058Z,2.40
2017-11-27T05:55:53.537Z,3.00
2017-11-27T05:58:20.994Z,3.03
2017-11-27T06:00:48.485Z,2.70
2017-11-27T06:03:15.946Z,2.53
2017-11-27T06:05:43.440Z,3.00
2017-11-27T06:08:10.926Z,2.50
2017-11-27T06:10:38.415Z,3.10
2017-11-27T06:13:05.913Z,2.47
2017-11-27T06:15:33.577Z,2.53
2017-11-27T06:18:01.060Z,2.67
2017-11-27T06:20:28.525Z,2.23
2017-11-27T06:22:55.993Z,2.20
2017-11-27T06:25:23.449Z,2.70
2017-11-27T06:27:50.927Z,3.20
2017-11-27T06:30:18.465Z,2.80
2017-11-27T06:32:45.928Z,2.10
2017-11-27T06:35:13.385Z,1.80
2017-11-27T06:37:40.852Z,2.30
2017-11-27T06:40:08.311Z,2.43
2017-11-27T06:42:35.767Z,2.80
2017-11-27T06:45:03.238Z,3.17
2017-11-27T06:47:30.693Z,3.33
2017-11-27T06:49:58.172Z,4.00
2017-11-27T06:52:25.650Z,4.37
2017-11-27T06:54:53.140Z,4.20
2017-11-27T06:57:20.610Z,4.50
2017-11-27T06:59:48.138Z,4.87
2017-11-27T07:02:15.599Z,5.20
2017-11-27T07:04:43.170Z,5.27
2017-11-27T07:07:10.639Z,4.83
2017-11-27T07:09:38.126Z,5.30
2017-11-27T07:12:05.586Z,4.90
2017-11-27T07:14:33.078Z,4.60
2017-11-27T07:17:00.549Z,6.10
2017-11-27T07:19:27.988Z,5.47
2017-11-27T07:21:55.572Z,5.13
2017-11-27T07:24:23.086Z,5.30
2017-11-27T07:26:50.553Z,6.47
2017-11-27T07:29:18.000Z,5.50
2017-11-27T07:31:45.519Z,8.00
2017-11-27T07:34:13.054Z,7.50
2017-11-27T07:36:40.619Z,7.53
2017-11-27T07:39:13.672Z,6.33
2017-11-27T07:41:41.146Z,6.23
2017-11-27T07:44:08.590Z,6.33
2017-11-27T07:46:36.081Z,6.33
2017-11-27T07:49:03.554Z,5.40
2017-11-27T07:51:31.097Z,5.57
2017-11-27T07:53:58.580Z,5.53
2017-11-27T07:56:26.100Z,5.30
2017-11-27T07:58:53.581Z,6.50
2017-11-27T08:01:21.050Z,6.00
2017-11-27T08:03:48.532Z,5.93
2017-11-27T08:06:15.984Z,5.30
2017-11-27T08:08:43.460Z,4.47
2017-11-27T08:11:10.901Z,4.73
2017-11-27T08:13:38.397Z,3.97
2017-11-27T08:16:05.864Z,4.90
2017-11-27T08:18:33.349Z,5.00
2017-11-27T08:21:00.879Z,4.53
2017-11-27T08:23:28.436Z,3.97
2017-11-27T08:25:55.937Z,5.20
2017-11-27T08:28:23.393Z,4.70
2017-11-27T08:30:50.886Z,4.50
2017-11-27T08:33:18.336Z,5.60
2017-11-27T08:35:45.805Z,4.97
2017-11-27T08:38:13.263Z,6.07
2017-11-27T08:40:40.826Z,5.83
2017-11-27T08:43:08.283Z,6.30
2017-11-27T08:45:35.862Z,6.70
2017-11-27T08:48:03.344Z,5.93
2017-11-27T08:50:30.867Z,6.50
2017-11-27T08:52:58.415Z,5.70
2017-11-27T08:55:25.872Z,5.87
2017-11-27T08:57:53.335Z,5.90
2017-11-27T09:00:20.792Z,6.63
2017-11-27T09:02:48.279Z,5.30
2017-11-27T09:05:15.811Z,5.40
2017-11-27T09:07:43.298Z,6.30
2017-11-27T09:10:10.764Z,9.50
2017-11-27T09:12:38.244Z,6.50
2017-11-27T09:15:05.751Z,6.27
2017-11-27T09:17:33.200Z,5.90
2017-11-27T09:20:00.673Z,5.53
2017-11-27T09:22:28.116Z,5.17
2017-11-27T09:24:55.591Z,5.70
2017-11-27T09:27:23.115Z,4.63
2017-11-27T09:29:50.577Z,5.60
2017-11-27T09:32:18.040Z,6.10
2017-11-27T09:34:45.522Z,5.93
2017-11-27T09:37:12.965Z,5.77
2017-11-27T09:39:40.500Z,5.23
2017-11-27T09:42:07.956Z,5.97
2017-11-27T09:44:35.439Z,5.33
2017-11-27T09:47:02.892Z,6.17
2017-11-27T09:49:30.380Z,4.40
2017-11-27T09:51:57.850Z,5.27
2017-11-27T09:54:25.306Z,5.50
2017-11-27T09:56:52.773Z,5.37
2017-11-27T09:59:20.242Z,5.73
2017-11-27T10:01:47.722Z,4.60
2017-11-27T10:04:15.175Z,5.53
2017-11-27T10:06:42.653Z,5.77
2017-11-27T10:09:10.180Z,4.90
2017-11-27T10:11:37.740Z,5.37
2017-11-27T10:14:05.204Z,4.40
2017-11-27T10:16:32.690Z,4.40
2017-11-27T10:19:00.136Z,3.80
2017-11-27T10:21:27.682Z,3.73
2017-11-27T10:23:55.222Z,2.83
2017-11-27T10:26:22.687Z,3.63
2017-11-27T10:28:50.152Z,2.90
2017-11-27T10:31:17.592Z,2.97
2017-11-27T10:33:45.055Z,2.90
2017-11-27T10:36:12.535Z,3.50
2017-11-27T10:38:40.002Z,2.87
2017-11-27T10:41:07.474Z,2.73
2017-11-27T10:43:34.948Z,2.40
2017-11-27T10:46:02.397Z,2.50
2017-11-27T10:48:29.871Z,2.57
2017-11-27T10:50:57.320Z,1.67
2017-11-27T10:53:24.766Z,1.97
2017-11-27T10:55:52.246Z,1.80
2017-11-27T10:58:19.715Z,1.90
2017-11-27T11:00:52.957Z,1.67
2017-11-27T11:03:20.468Z,1.50
2017-11-27T11:05:47.946Z,1.47
2017-11-27T11:08:15.484Z,2.10
2017-11-27T11:10:43.043Z,1.33
2017-11-27T11:13:10.526Z,1.33
2017-11-27T11:15:38.024Z,1.30
2017-11-27T11:18:05.515Z,1.70
2017-11-27T11:20:32.980Z,1.10
2017-11-27T11:23:00.461Z,1.43
2017-11-27T11:25:27.940Z,1.43
2017-11-27T11:27:55.444Z,1.90
2017-11-27T11:30:22.899Z,1.47
2017-11-27T11:32:50.369Z,1.40
2017-11-27T11:35:17.825Z,1.10
2017-11-27T11:37:45.381Z,1.23
2017-11-27T11:40:12.837Z,1.23
2017-11-27T11:42:40.307Z,1.30
2017-11-27T11:45:07.753Z,1.07
2017-11-27T11:47:35.302Z,1.13
2017-11-27T11:50:02.748Z,1.03
2017-11-27T11:52:30.217Z,1.07
2017-11-27T11:54:57.657Z,1.10
2017-11-27T11:57:25.126Z,1.27
2017-11-27T11:59:52.568Z,0.97
2017-11-27T12:02:20.178Z,0.93
2017-11-27T12:04:47.618Z,0.97
2017-11-27T12:07:15.080Z,0.73
2017-11-27T12:09:42.549Z,1.10
2017-11-27T12:12:10.065Z,1.10
2017-11-27T12:14:37.564Z,1.30
2017-11-27T12:17:05.039Z,1.20
2017-11-27T12:19:32.504Z,0.90
2017-11-27T12:21:59.951Z,0.83
2017-11-27T12:24:27.435Z,0.77
2017-11-27T12:26:54.893Z,1.20
2017-11-27T12:29:22.380Z,1.10
2017-11-27T12:31:49.824Z,1.30
2017-11-27T12:34:17.288Z,1.00
2017-11-27T12:36:44.740Z,0.80
2017-11-27T12:39:12.209Z,0.97
2017-11-27T12:41:39.683Z,1.17
2017-11-27T12:44:07.132Z,0.90
2017-11-27T12:46:34.600Z,1.10
2017-11-27T12:49:02.053Z,1.30
2017-11-27T12:51:29.540Z,1.17
2017-11-27T12:53:57.021Z,1.27
2017-11-27T12:56:24.487Z,1.07
2017-11-27T12:58:51.937Z,1.03
2017-11-27T13:01:19.501Z,1.03
2017-11-27T13:03:46.962Z,1.10
2017-11-27T13:06:14.459Z,0.83
2017-11-27T13:08:41.914Z,0.93
2017-11-27T13:11:09.395Z,0.87
2017-11-27T13:13:36.840Z,0.80
2017-11-27T13:16:04.304Z,0.97
2017-11-27T13:18:31.790Z,0.73
2017-11-27T13:20:59.265Z,0.97
2017-11-27T13:23:26.734Z,0.80
2017-11-27T13:25:54.194Z,1.10
2017-11-27T13:28:21.738Z,1.00
2017-11-27T13:30:49.198Z,0.80
2017-11-27T13:33:16.664Z,1.20
2017-11-27T13:35:44.201Z,1.00
2017-11-27T13:38:11.713Z,0.80
2017-11-27T13:40:39.173Z,0.80
2017-11-27T13:43:06.657Z,0.83
2017-11-27T13:45:34.829Z,1.27
2017-11-27T13:48:02.292Z,0.90
2017-11-27T13:50:29.751Z,0.80
2017-11-27T13:52:57.228Z,0.80
2017-11-27T13:55:24.686Z,0.90
2017-11-27T13:57:52.461Z,0.70
2017-11-27T14:00:19.925Z,0.70
2017-11-27T14:02:47.378Z,0.77
2017-11-27T14:05:14.865Z,0.80
2017-11-27T14:07:42.331Z,0.60
2017-11-27T14:10:09.814Z,0.60
2017-11-27T14:12:37.284Z,0.70
2017-11-27T14:15:04.740Z,0.60
2017-11-27T14:17:32.184Z,0.70
2017-11-27T14:19:59.711Z,0.60
2017-11-27T14:22:27.172Z,0.77
2017-11-27T14:24:54.649Z,0.60
2017-11-27T14:27:22.158Z,0.63
2017-11-27T14:29:49.643Z,0.60
2017-11-27T14:32:17.091Z,0.70
2017-11-27T14:34:44.571Z,0.57
2017-11-27T14:37:12.046Z,0.60
2017-11-27T14:39:39.661Z,0.50
2017-11-27T14:42:07.179Z,0.57
2017-11-27T14:44:34.640Z,0.70
2017-11-27T14:47:02.115Z,0.50
2017-11-27T14:49:29.578Z,0.70
2017-11-27T14:51:57.060Z,0.60
2017-11-27T14:54:24.739Z,0.83
2017-11-27T14:56:52.321Z,0.80
2017-11-27T14:59:19.884Z,0.97
2017-11-27T15:01:47.358Z,0.63
2017-11-27T15:04:14.824Z,1.13
2017-11-27T15:06:42.295Z,0.47
2017-11-27T15:09:09.752Z,0.70
2017-11-27T15:11:37.374Z,0.53
2017-11-27T15:14:04.921Z,0.50
2017-11-27T15:16:32.409Z,0.50
2017-11-27T15:18:59.932Z,0.60
2017-11-27T15:21:27.412Z,0.70
2017-11-27T15:23:54.912Z,0.50
2017-11-27T15:26:22.378Z,0.50
2017-11-27T15:28:49.852Z,0.60
2017-11-27T15:31:17.344Z,0.73
2017-11-27T15:33:44.816Z,0.50
2017-11-27T15:36:12.279Z,0.50
2017-11-27T15:38:39.758Z,0.70
2017-11-27T15:41:07.272Z,0.50
2017-11-27T15:43:34.757Z,0.40
2017-11-27T15:46:02.220Z,0.40
2017-11-27T15:48:29.700Z,0.67
2017-11-27T15:50:57.161Z,0.90
2017-11-27T15:53:24.633Z,0.50
2017-11-27T15:55:52.152Z,0.70
2017-11-27T15:58:19.633Z,0.70
2017-11-27T16:00:47.086Z,0.50
2017-11-27T16:03:14.543Z,0.70
2017-11-27T16:05:42.029Z,0.90
2017-11-27T16:08:09.516Z,0.77
2017-11-27T16:10:37.004Z,0.80
2017-11-27T16:13:04.458Z,0.90
2017-11-27T16:15:31.924Z,0.80
2017-11-27T16:17:59.375Z,0.80
2017-11-27T16:20:26.846Z,0.80
2017-11-27T16:22:54.311Z,0.63
2017-11-27T16:25:21.876Z,0.50
2017-11-27T16:27:49.332Z,0.80
2017-11-27T16:30:16.838Z,1.13
2017-11-27T16:32:44.310Z,0.67
2017-11-27T16:35:11.774Z,1.17
2017-11-27T16:37:39.245Z,0.77
2017-11-27T16:40:06.706Z,0.50
2017-11-27T16:42:34.225Z,0.70
2017-11-27T16:45:01.745Z,0.40
2017-11-27T16:47:29.212Z,0.63
2017-11-27T16:49:56.660Z,1.03
2017-11-27T16:52:24.136Z,0.87
2017-11-27T16:54:51.634Z,0.60
2017-11-27T16:57:19.163Z,0.50
2017-11-27T16:59:46.652Z,0.70
2017-11-27T17:02:14.105Z,0.60
2017-11-27T17:04:41.592Z,0.50
2017-11-27T17:07:09.063Z,0.40
2017-11-27T17:09:36.547Z,0.73
2017-11-27T17:12:04.086Z,0.50
2017-11-27T17:14:32.414Z,0.53
2017-11-27T17:16:59.853Z,0.50
2017-11-27T17:19:27.326Z,0.50
2017-11-27T17:21:54.770Z,0.50
2017-11-27T17:24:22.246Z,0.40
2017-11-27T17:26:49.738Z,0.50
2017-11-27T17:29:17.221Z,0.60
2017-11-27T17:31:44.695Z,0.70
2017-11-27T17:34:12.178Z,0.50
2017-11-27T17:36:39.624Z,0.50
2017-11-27T17:39:07.065Z,0.50
2017-11-27T17:41:34.555Z,0.60
2017-11-27T17:44:02.019Z,0.70
2017-11-27T17:46:29.521Z,0.80
2017-11-27T17:48:56.960Z,0.50
2017-11-27T17:51:25.077Z,0.60
2017-11-27T17:53:52.540Z,0.60
2017-11-27T17:56:20.019Z,0.50
2017-11-27T17:58:47.485Z,0.70
2017-11-27T18:01:14.990Z,0.60
2017-11-27T18:03:42.457Z,0.60
2017-11-27T18:06:09.940Z,0.53
2017-11-27T18:08:37.386Z,0.50
2017-11-27T18:11:04.884Z,0.60
2017-11-27T18:13:32.338Z,0.40
2017-11-27T18:15:59.804Z,0.57
2017-11-27T18:18:27.324Z,0.57
2017-11-27T18:20:54.794Z,0.40
2017-11-27T18:23:22.273Z,0.50
2017-11-27T18:25:49.750Z,0.50
2017-11-27T18:28:17.221Z,0.43
2017-11-27T18:30:44.680Z,0.50
2017-11-27T18:33:12.224Z,0.50
2017-11-27T18:35:39.705Z,0.40
2017-11-27T18:38:07.178Z,0.50
2017-11-27T18:40:34.667Z,0.73
2017-11-27T18:43:02.140Z,0.67
2017-11-27T18:45:29.588Z,0.50
2017-11-27T18:47:57.064Z,0.53
2017-11-27T18:50:24.519Z,0.50
2017-11-27T18:52:51.966Z,0.50
2017-11-27T18:55:19.445Z,0.53
2017-11-27T18:57:46.908Z,0.60
2017-11-27T19:00:14.391Z,0.57
2017-11-27T19:02:41.859Z,0.60
2017-11-27T19:05:09.324Z,0.83
2017-11-27T19:07:36.774Z,2.20
2017-11-27T19:10:04.257Z,8.40
2017-11-27T19:12:31.710Z,3.90
2017-11-27T19:14:59.217Z,6.20
2017-11-27T19:17:26.681Z,0.90
2017-11-27T19:19:54.145Z,0.90
2017-11-27T19:22:21.625Z,0.77
2017-11-27T19:24:49.083Z,0.90
2017-11-27T19:27:16.570Z,0.50
2017-11-27T19:29:44.013Z,0.73
2017-11-27T19:32:11.482Z,0.70
2017-11-27T19:34:38.942Z,0.60
2017-11-27T19:37:06.417Z,0.87
2017-11-27T19:39:33.871Z,0.40
2017-11-27T19:42:01.384Z,0.70
2017-11-27T19:44:28.832Z,0.40
2017-11-27T19:46:56.272Z,0.63
2017-11-27T19:49:23.737Z,0.70
2017-11-27T19:51:51.199Z,0.60
2017-11-27T19:54:18.678Z,0.40
2017-11-27T19:56:46.128Z,0.50
2017-11-27T19:59:13.641Z,0.60
2017-11-27T20:01:41.124Z,0.80
2017-11-27T20:04:08.610Z,0.60
2017-11-27T20:06:36.067Z,0.50
2017-11-27T20:09:03.536Z,0.60
2017-11-27T20:11:30.994Z,0.60
2017-11-27T20:13:58.480Z,0.40
2017-11-27T20:16:25.946Z,0.60
2017-11-27T20:18:53.408Z,0.50
2017-11-27T20:21:20.887Z,0.83
2017-11-27T20:23:48.383Z,0.63
2017-11-27T20:26:15.849Z,0.90
2017-11-27T20:28:43.297Z,0.73
2017-11-27T20:31:10.764Z,0.40
2017-11-27T20:33:38.214Z,0.40
2017-11-27T20:36:05.684Z,0.60
2017-11-27T20:38:33.161Z,0.57
2017-11-27T20:41:00.624Z,0.40
2017-11-27T20:43:28.248Z,0.40
2017-11-27T20:45:55.718Z,0.53
2017-11-27T20:48:23.183Z,0.50
2017-11-27T20:50:50.654Z,0.60
2017-11-27T20:53:18.097Z,0.40
2017-11-27T20:55:45.579Z,0.60
2017-11-27T20:58:13.021Z,0.40
2017-11-27T21:00:40.513Z,0.40
2017-11-27T21:03:07.968Z,0.50
2017-11-27T21:05:36.274Z,0.40
2017-11-27T21:08:03.741Z,1.10
2017-11-27T21:10:31.187Z,0.40
2017-11-27T21:12:58.672Z,0.60
2017-11-27T21:15:26.116Z,0.53
2017-11-27T21:17:53.594Z,0.50
2017-11-27T21:20:21.060Z,0.67
2017-11-27T21:22:48.541Z,0.60
2017-11-27T21:25:16.073Z,0.67
2017-11-27T21:27:43.641Z,0.60
2017-11-27T21:30:11.108Z,0.40
2017-11-27T21:32:38.579Z,0.80
2017-11-27T21:35:06.060Z,0.40
2017-11-27T21:37:33.532Z,0.50
2017-11-27T21:40:00.997Z,0.40
2017-11-27T21:42:28.448Z,0.50
2017-11-27T21:44:55.945Z,0.40
2017-11-27T21:47:23.399Z,0.60
2017-11-27T21:49:50.869Z,0.40
2017-11-27T21:52:18.313Z,0.50
2017-11-27T21:54:45.771Z,0.40
2017-11-27T21:57:13.213Z,0.40
2017-11-27T21:59:40.697Z,0.40
2017-11-27T22:02:08.179Z,0.33
2017-11-27T22:04:35.644Z,0.30
2017-11-27T22:07:03.117Z,0.60
2017-11-27T22:09:30.603Z,0.50
2017-11-27T22:11:58.060Z,0.37
2017-11-27T22:14:25.557Z,0.40
2017-11-27T22:16:53.008Z,0.40
2017-11-27T22:19:20.447Z,0.50
2017-11-27T22:21:47.904Z,0.50
2017-11-27T22:24:15.425Z,0.30
2017-11-27T22:26:42.894Z,0.40
2017-11-27T22:29:10.344Z,0.30
2017-11-27T22:31:37.816Z,0.40
2017-11-27T22:34:05.256Z,0.40
2017-11-27T22:36:32.732Z,0.40
2017-11-27T22:39:00.197Z,0.30
2017-11-27T22:41:27.666Z,0.40
2017-11-27T22:43:55.123Z,0.50
2017-11-27T22:46:22.603Z,0.40
2017-11-27T22:48:50.085Z,0.50
2017-11-27T22:51:17.550Z,0.30
2017-11-27T22:53:44.997Z,0.40
2017-11-27T22:56:12.475Z,0.40
2017-11-27T22:58:39.952Z,0.40
2017-11-27T23:01:07.477Z,0.40
2017-11-27T23:03:34.943Z,0.40
2017-11-27T23:06:02.448Z,0.30
2017-11-27T23:08:29.947Z,0.50
2017-11-27T23:10:57.464Z,0.40
2017-11-27T23:13:24.929Z,0.40
2017-11-27T23:15:52.370Z,0.40
2017-11-27T23:18:19.834Z,0.30
2017-11-27T23:20:47.319Z,0.30
2017-11-27T23:23:14.847Z,0.37
2017-11-27T23:25:42.306Z,0.30
2017-11-27T23:28:09.771Z,0.30
2017-11-27T23:30:37.298Z,0.30
2017-11-27T23:33:04.795Z,0.30
2017-11-27T23:35:32.271Z,0.40
2017-11-27T23:37:59.730Z,0.30
2017-11-27T23:40:27.214Z,0.40
2017-11-27T23:42:54.667Z,0.30
2017-11-27T23:45:22.145Z,0.30
2017-11-27T23:47:49.671Z,0.50
2017-11-27T23:50:17.152Z,0.40
2017-11-27T23:52:44.614Z,0.40
2017-11-27T23:55:12.094Z,0.40
2017-11-27T23:57:39.546Z,0.30
